Flight Track Log - Related Links

Times and Time Zones

All times are in EST time to prevent confusion due to time zone crossing. See the SWA1301 flight status page for this flight to view local times or setup timezone preferences in your user account.

Time Position Orientation Groundspeed Altitude Reporting Facility
EST Latitude Longitude Course Direction KTS MPH feet Rate Location/Type
Sat 08:38:17 PM 33.4333 -112.0333 270° West 180 207 2,100  Level Phoenix TRACON
Sat 08:39:05 PM 33.4333 -112.0833 270° West 176 203 3,400 2,000 Climbing Phoenix TRACON
Sat 08:40:17 PM 33.4331 -112.1583 270° West 210 242 6,100 2,597 Climbing Albuquerque Center
Sat 08:41:19 PM 33.4831 -112.1758 344° North 229 264 9,200 2,557 Climbing Albuquerque Center
Sat 08:42:12 PM 33.5333 -112.1000 51° Northeast 321 369 11,000 2,641 Climbing Phoenix TRACON
Sat 08:44:23 PM 33.5917 -111.8581 74° East 366 421 17,300 2,829 Climbing Albuquerque Center
Sat 08:45:25 PM 33.6131 -111.7306 79° East 390 449 20,100 2,537 Climbing Albuquerque Center
Sat 08:46:26 PM 33.6342 -111.6017 79° East 398 458 22,500 2,066 Climbing Albuquerque Center
Sat 08:47:27 PM 33.6564 -111.4644 79° East 418 481 24,300 1,854 Climbing Albuquerque Center
Sat 08:48:29 PM 33.6794 -111.3208 79° East 439 505 26,300 2,049 Climbing Albuquerque Center
Sat 08:49:30 PM 33.7286 -111.1550 70° East 442 509 28,500 1,805 Climbing Albuquerque Center
Sat 08:50:32 PM 33.7778 -111.0172 67° East 449 517 30,000 1,268 Climbing Albuquerque Center
Sat 08:51:33 PM 33.8294 -110.8731 67° East 459 528 31,100 1,073 Climbing Albuquerque Center
Sat 08:52:35 PM 33.8814 -110.7253 67° East 471 542 32,200 1,073 Climbing Albuquerque Center
Sat 08:53:36 PM 33.9336 -110.5722 68° East 486 559 33,300 934 Climbing Albuquerque Center
Sat 08:54:37 PM 33.9892 -110.4128 67° East 506 582 34,100 927 Climbing Albuquerque Center
Sat 08:55:39 PM 34.0478 -110.2469 67° East 523 602 35,200 1,268 Climbing Albuquerque Center
Sat 08:56:40 PM 34.1100 -110.0697 67° East 529 609 36,700 878 Climbing Albuquerque Center
Sat 08:57:42 PM 34.1711 -109.8869 68° East 528 608 37,000 146 Climbing Albuquerque Center
Sat 08:58:43 PM 34.2258 -109.7325 67° East 524 603 37,000  Level Albuquerque Center
Sat 08:59:44 PM 34.2783 -109.5761 68° East 526 605 37,000  Level Albuquerque Center
Sat 09:00:46 PM 34.3414 -109.3919 67° East 530 610 37,000  Level Albuquerque Center
Sat 09:01:47 PM 34.3939 -109.2347 68° East 529 609 37,000  Level Albuquerque Center
Sat 09:02:49 PM 34.4528 -109.0461 69° East 532 612 37,000  Level Albuquerque Center
Sat 09:03:50 PM 34.4972 -108.8808 72° East 536 617 37,000  Level Albuquerque Center
Sat 09:04:52 PM 34.5514 -108.6878 71° East 541 623 37,000  Level Albuquerque Center
Sat 09:05:53 PM 34.5967 -108.5194 72° East 545 627 37,000  Level Albuquerque Center
Sat 09:06:54 PM 34.6422 -108.3511 72° East 547 629 37,000  Level Albuquerque Center
Sat 09:07:56 PM 34.6933 -108.1586 72° East 542 624 37,000  Level Albuquerque Center
Sat 09:08:57 PM 34.7350 -108.0061 72° East 541 623 37,000  Level Albuquerque Center
Sat 09:09:59 PM 34.7806 -107.8347 72° East 536 617 37,000  Level Albuquerque Center
Sat 09:11:00 PM 34.8344 -107.6306 72° East 531 611 37,000  Level Albuquerque Center
Sat 09:12:02 PM 34.8847 -107.4589 70° East 535 616 37,000  Level Albuquerque Center
Sat 09:13:03 PM 34.9467 -107.2814 67° East 530 610 37,000  Level Albuquerque Center
Sat 09:14:05 PM 35.0033 -107.1153 67° East 529 609 37,000  Level Albuquerque Center
Sat 09:15:06 PM 35.0586 -106.9492 68° East 527 606 37,000  Level Albuquerque Center
Sat 09:16:08 PM 35.1147 -106.7850 67° East 524 603 37,000  Level Albuquerque Center
Sat 09:17:09 PM 35.1681 -106.6206 68° East 515 593 37,000  Level Albuquerque Center
Sat 09:18:10 PM 35.2278 -106.4461 67° East 530 610 37,000  Level Albuquerque Center
Sat 09:19:12 PM 35.2817 -106.2822 68° East 526 605 37,000  Level Albuquerque Center
Sat 09:20:13 PM 35.3350 -106.1178 68° East 525 604 37,000  Level Albuquerque Center
Sat 09:21:15 PM 35.3897 -105.9544 68° East 534 615 37,000  Level Albuquerque Center
Sat 09:22:16 PM 35.4431 -105.7881 68° East 525 604 37,000  Level Albuquerque Center
Sat 09:23:18 PM 35.5064 -105.5917 68° East 521 600 37,000  Level Albuquerque Center
Sat 09:24:19 PM 35.5589 -105.4275 68° East 525 604 37,000  Level Albuquerque Center
Sat 09:25:21 PM 35.6125 -105.2578 69° East 528 608 37,000  Level Albuquerque Center
Sat 09:26:22 PM 35.6675 -105.0906 68° East 524 603 37,000  Level Albuquerque Center
Sat 09:27:23 PM 35.7194 -104.9231 69° East 520 598 37,000  Level Albuquerque Center
Sat 09:28:25 PM 35.7728 -104.7539 69° East 522 601 37,000  Level Albuquerque Center
Sat 09:29:26 PM 35.8261 -104.5797 69° East 531 611 37,000  Level Albuquerque Center
Sat 09:30:28 PM 35.8806 -104.4056 69° East 535 616 37,000  Level Albuquerque Center
Sat 09:31:29 PM 35.9350 -104.2303 69° East 538 619 37,000  Level Albuquerque Center
Sat 09:32:30 PM 35.9886 -104.0558 69° East 538 619 37,000  Level Albuquerque Center
Sat 09:33:32 PM 36.0428 -103.8781 69° East 542 624 37,000  Level Albuquerque Center
Sat 09:34:33 PM 36.0972 -103.7011 69° East 544 626 37,000  Level Albuquerque Center
Sat 09:35:34 PM 36.1514 -103.5203 70° East 551 634 37,000  Level Albuquerque Center
Sat 09:36:36 PM 36.2142 -103.3097 70° East 554 638 37,000  Level Albuquerque Center
Sat 09:37:37 PM 36.2661 -103.1278 70° East 555 639 37,000  Level Albuquerque Center
Sat 09:38:39 PM 36.3194 -102.9472 70° East 553 636 37,000  Level Albuquerque Center
Sat 09:39:40 PM 36.3661 -102.7867 70° East 548 631 37,000  Level Albuquerque Center
Sat 09:40:41 PM 36.4172 -102.6111 70° East 543 625 37,000  Level Albuquerque Center
Sat 09:41:43 PM 36.4697 -102.4325 70° East 547 629 37,000  Level Albuquerque Center
Sat 09:42:44 PM 36.5203 -102.2547 70° East 546 628 37,000  Level Albuquerque Center
Sat 09:43:45 PM 36.5808 -102.0436 70° East 541 623 37,000  Level Albuquerque Center
Sat 09:44:47 PM 36.6267 -101.8781 71° East 543 625 37,000  Level Albuquerque Center
Sat 09:45:48 PM 36.6825 -101.6803 71° East 544 626 37,000  Level Albuquerque Center
Sat 09:46:49 PM 36.7306 -101.5125 70° East 541 623 37,000  Level Albuquerque Center
Sat 09:47:51 PM 36.7775 -101.3425 71° East 541 623 37,000  Level Albuquerque Center
Sat 09:49:09 PM 36.8481 -101.0894 71° East 541 623 37,000 302 Level Kansas City Center
Sat 09:50:10 PM 36.8961 -100.9147 71° East 552 635 37,700 787 Climbing Kansas City Center
Sat 09:51:11 PM 36.9431 -100.7408 71° East 556 640 38,600 639 Climbing Kansas City Center
Sat 09:52:12 PM 36.9978 -100.5389 71° East 554 638 39,000 197 Climbing Kansas City Center
Sat 09:53:13 PM 37.0439 -100.3664 71° East 551 634 39,000  Level Kansas City Center
Sat 09:54:14 PM 37.0958 -100.1658 72° East 548 631 39,000  Level Kansas City Center
Sat 09:55:16 PM 37.1419 -99.9931 71° East 548 631 39,000  Level Kansas City Center
Sat 09:56:17 PM 37.1861 -99.8203 72° East 547 629 39,000  Level Kansas City Center
Sat 09:57:18 PM 37.2397 -99.6181 72° East 549 632 39,000  Level Kansas City Center
Sat 09:58:19 PM 37.2814 -99.4550 72° East 547 629 39,000  Level Kansas City Center
Sat 09:59:20 PM 37.3325 -99.2647 71° East 552 635 39,000  Level Kansas City Center
Sat 10:00:21 PM 37.3769 -99.0836 73° East 547 629 39,000  Level Kansas City Center
Sat 10:01:22 PM 37.4217 -98.8986 73° East 552 635 39,000  Level Kansas City Center
Sat 10:02:23 PM 37.4689 -98.7169 72° East 551 634 39,000  Level Kansas City Center
Sat 10:03:24 PM 37.5144 -98.5347 72° East 549 632 39,000  Level Kansas City Center
Sat 10:04:25 PM 37.5692 -98.3147 73° East 550 633 39,000  Level Kansas City Center
Sat 10:05:27 PM 37.6131 -98.1319 73° East 550 633 39,000  Level Kansas City Center
Sat 10:06:28 PM 37.6589 -97.9417 73° East 551 634 39,000  Level Kansas City Center
Sat 10:07:29 PM 37.7036 -97.7547 73° East 553 636 39,000  Level Kansas City Center
Sat 10:08:30 PM 37.7486 -97.5683 73° East 553 636 39,000  Level Kansas City Center
Sat 10:09:31 PM 37.7889 -97.3986 73° East 557 641 39,000  Level Kansas City Center
Sat 10:10:32 PM 37.8325 -97.2133 73° East 555 639 39,000  Level Kansas City Center
Sat 10:11:33 PM 37.8761 -97.0294 73° East 549 632 39,000  Level Kansas City Center
Sat 10:12:34 PM 37.9278 -96.8064 74° East 552 635 39,000  Level Kansas City Center
Sat 10:13:36 PM 37.9697 -96.6222 74° East 547 629 39,000  Level Kansas City Center
Sat 10:14:37 PM 38.0125 -96.4369 74° East 548 631 39,000  Level Kansas City Center
Sat 10:15:38 PM 38.0544 -96.2531 74° East 547 629 39,000  Level Kansas City Center
Sat 10:16:39 PM 38.0961 -96.0639 74° East 544 626 39,000  Level Kansas City Center
Sat 10:17:40 PM 38.1356 -95.8872 74° East 544 626 39,000  Level Kansas City Center
Sat 10:18:41 PM 38.1817 -95.6811 74° East 545 627 39,000  Level Kansas City Center
Sat 10:19:42 PM 38.2189 -95.5047 75° East 543 625 39,000  Level Kansas City Center
Sat 10:20:43 PM 38.2642 -95.3011 74° East 540 621 39,000  Level Kansas City Center
Sat 10:21:44 PM 38.3017 -95.1244 75° East 540 621 39,000  Level Kansas City Center
Sat 10:22:45 PM 38.3408 -94.9456 74° East 545 627 39,000  Level Kansas City Center
Sat 10:23:46 PM 38.3844 -94.7408 75° East 541 623 39,000  Level Kansas City Center
Sat 10:24:47 PM 38.4211 -94.5650 75° East 541 623 39,000  Level Kansas City Center
Sat 10:25:48 PM 38.4581 -94.3889 75° East 539 620 39,000  Level Kansas City Center
Sat 10:26:49 PM 38.5006 -94.1839 75° East 536 617 39,000  Level Kansas City Center
Sat 10:27:50 PM 38.5358 -94.0072 76° East 538 619 39,000  Level Kansas City Center
Sat 10:28:51 PM 38.5772 -93.8022 75° East 536 617 39,000  Level Kansas City Center
Sat 10:29:52 PM 38.6086 -93.6406 76° East 530 610 39,000  Level Kansas City Center
Sat 10:30:53 PM 38.6458 -93.4550 76° East 532 612 39,000  Level Kansas City Center
Sat 10:31:54 PM 38.6836 -93.2703 75° East 533 613 39,000  Level Kansas City Center
Sat 10:32:55 PM 38.7200 -93.0858 76° East 531 611 39,000  Level Kansas City Center
Sat 10:33:56 PM 38.7553 -92.9008 76° East 531 611 39,000  Level Kansas City Center
Sat 10:34:57 PM 38.7908 -92.7175 76° East 529 609 39,000  Level Kansas City Center
Sat 10:35:58 PM 38.8258 -92.5325 76° East 528 608 39,000  Level Kansas City Center
Sat 10:36:59 PM 38.8603 -92.3458 77° East 530 610 39,000  Level Kansas City Center
Sat 10:38:00 PM 38.8947 -92.1581 77° East 534 615 39,000  Level Kansas City Center
Sat 10:39:01 PM 38.9294 -91.9722 76° East 533 613 39,000  Level Kansas City Center
Sat 10:40:01 PM 38.9633 -91.7853 77° East 532 612 39,000  Level Kansas City Center
Sat 10:41:02 PM 38.9975 -91.5942 77° East 535 616 39,000  Level Kansas City Center
Sat 10:42:03 PM 39.0311 -91.4092 77° East 533 613 39,000  Level Kansas City Center
Sat 10:43:04 PM 39.0642 -91.2231 77° East 532 612 39,000  Level Kansas City Center
Sat 10:44:05 PM 39.0989 -91.0369 76° East 533 613 39,000  Level Kansas City Center
Sat 10:45:06 PM 39.1369 -90.8161 77° East 530 610 39,000  Level Kansas City Center
Sat 10:46:07 PM 39.1686 -90.6300 78° East 528 608 39,000  Level Kansas City Center
Sat 10:47:08 PM 39.2003 -90.4439 78° East 528 608 39,000  Level Kansas City Center
Sat 10:48:09 PM 39.2311 -90.2561 78° East 530 610 39,000  Level Kansas City Center
Sat 10:49:09 PM 39.2547 -90.0672 81° East 530 610 39,000  Level Kansas City Center
Sat 10:50:10 PM 39.2775 -89.8769 81° East 533 613 39,000  Level Kansas City Center
Sat 10:51:11 PM 39.2997 -89.6886 81° East 532 612 39,000  Level Kansas City Center
Sat 10:52:12 PM 39.3222 -89.5014 81° East 530 610 39,000  Level Kansas City Center
Sat 10:53:13 PM 39.3442 -89.3158 81° East 526 605 39,000  Level Kansas City Center
Sat 10:54:14 PM 39.3656 -89.1300 81° East 525 604 39,000  Level Kansas City Center
Sat 10:55:14 PM 39.3858 -88.9453 82° East 523 602 39,000  Level Kansas City Center
Sat 10:56:15 PM 39.4075 -88.7622 81° East 522 601 39,000  Level Kansas City Center
Sat 10:57:16 PM 39.4311 -88.5511 82° East 523 602 39,000  Level Kansas City Center
Sat 10:58:17 PM 39.4511 -88.3647 82° East 522 601 39,000  Level Kansas City Center
Sat 10:59:18 PM 39.4703 -88.1758 82° East 524 603 39,000  Level Kansas City Center
Sat 11:00:12 PM 39.4872 -88.0322 81° East 535 616 39,000  Level Indianapolis Center
Sat 11:01:13 PM 39.5047 -87.8469 83° East 525 604 39,000  Level Indianapolis Center
Sat 11:02:14 PM 39.5286 -87.6250 82° East 520 598 39,000  Level Indianapolis Center
Sat 11:03:14 PM 39.5475 -87.4406 82° East 518 596 39,000  Level Indianapolis Center
Sat 11:04:15 PM 39.5661 -87.2558 82° East 520 598 39,000  Level Indianapolis Center
Sat 11:05:16 PM 39.5839 -87.0722 83° East 518 596 39,000  Level Indianapolis Center
Sat 11:06:16 PM 39.6011 -86.8892 83° East 516 594 39,000  Level Indianapolis Center
Sat 11:07:17 PM 39.6181 -86.7061 83° East 515 593 39,000  Level Indianapolis Center
Sat 11:08:18 PM 39.6347 -86.5242 83° East 513 590 39,000  Level Indianapolis Center
Sat 11:09:18 PM 39.6514 -86.3489 83° East 512 589 39,000  Level Indianapolis Center
Sat 11:10:19 PM 39.6675 -86.1639 83° East 512 589 39,000  Level Indianapolis Center
Sat 11:11:19 PM 39.6858 -85.9544 83° East 512 589 39,000  Level Indianapolis Center
Sat 11:12:20 PM 39.7008 -85.7725 84° East 512 589 39,000  Level Indianapolis Center
Sat 11:13:20 PM 39.7169 -85.5900 83° East 512 589 39,000  Level Indianapolis Center
Sat 11:14:21 PM 39.7319 -85.4083 84° East 510 587 39,000  Level Indianapolis Center
Sat 11:15:22 PM 39.7469 -85.2256 84° East 511 588 39,000  Level Indianapolis Center
Sat 11:16:22 PM 39.7608 -85.0442 84° East 508 585 39,000  Level Indianapolis Center
Sat 11:17:23 PM 39.7756 -84.8686 84° East 508 585 39,000  Level Indianapolis Center
Sat 11:18:23 PM 39.7892 -84.6864 84° East 509 586 39,000  Level Indianapolis Center
Sat 11:19:24 PM 39.8028 -84.5028 84° East 511 588 39,000  Level Indianapolis Center
Sat 11:20:24 PM 39.8147 -84.3178 85° East 513 590 39,000  Level Indianapolis Center
Sat 11:21:25 PM 39.8294 -84.1319 84° East 516 594 39,000  Level Indianapolis Center
Sat 11:22:26 PM 39.8428 -83.9481 85° East 515 593 39,000  Level Indianapolis Center
Sat 11:23:26 PM 39.8550 -83.7628 85° East 515 593 39,000  Level Indianapolis Center
Sat 11:24:27 PM 39.8692 -83.5478 85° East 514 592 39,000  Level Indianapolis Center
Sat 11:25:27 PM 39.8825 -83.3603 85° East 516 594 39,000  Level Indianapolis Center
Sat 11:26:28 PM 39.8925 -83.1894 86° East 517 595 39,000  Level Indianapolis Center
Sat 11:27:28 PM 39.9033 -83.0058 86° East 512 589 39,000  Level Indianapolis Center
Sat 11:28:29 PM 39.9150 -82.8208 85° East 512 589 39,000  Level Indianapolis Center
Sat 11:29:29 PM 39.9258 -82.6350 86° East 515 593 39,000  Level Indianapolis Center
Sat 11:30:30 PM 39.9361 -82.4483 86° East 517 595 39,000  Level Indianapolis Center
Sat 11:31:30 PM 39.9467 -82.2625 86° East 517 595 39,000  Level Indianapolis Center
Sat 11:32:31 PM 39.9564 -82.0758 86° East 517 595 39,000  Level Indianapolis Center
Sat 11:33:31 PM 39.9661 -81.8897 86° East 516 594 39,000  Level Indianapolis Center
Sat 11:34:32 PM 39.9769 -81.6772 86° East 517 595 39,000  Level Indianapolis Center
Sat 11:35:32 PM 39.9806 -81.4917 88° East 512 589 39,000  Level Indianapolis Center
Sat 11:36:33 PM 39.9586 -81.3119 99° East 506 582 39,000  Level Indianapolis Center
Sat 11:37:45 PM 39.9308 -81.0978 100° East 499 574 39,000  Level Indianapolis Center
Sat 11:38:46 PM 39.9081 -80.9194 99° East 497 572 39,000  Level Indianapolis Center
Sat 11:39:19 PM 39.8975 -80.8283 99° East 497 572 39,000 -258 Level Cleveland Center
Sat 11:40:19 PM 39.8756 -80.6583 99° East 485 558 38,600 -645 Descending Cleveland Center
Sat 11:41:20 PM 39.8522 -80.4844 100° East 491 565 37,700 -942 Descending Cleveland Center
Sat 11:42:20 PM 39.8306 -80.3108 99° East 492 566 36,700 -942 Descending Cleveland Center
Sat 11:43:21 PM 39.8069 -80.1406 100° East 486 559 35,800 -942 Descending Cleveland Center
Sat 11:44:21 PM 39.7836 -79.9681 100° East 488 562 34,800 -1,091 Descending Cleveland Center
Sat 11:45:22 PM 39.7589 -79.7964 101° East 487 560 33,600 -1,388 Descending Cleveland Center
Sat 11:46:22 PM 39.7372 -79.6275 99° East 481 554 32,000 -1,537 Descending Cleveland Center
Sat 11:47:23 PM 39.7139 -79.4669 101° East 463 533 30,500 -1,240 Descending Cleveland Center
Sat 11:48:23 PM 39.6906 -79.3044 101° East 460 529 29,500 -1,190 Descending Cleveland Center
Sat 11:49:24 PM 39.6633 -79.1144 100° East 452 520 28,100 -1,388 Descending Cleveland Center
Sat 11:50:24 PM 39.6358 -78.9650 103° East 443 510 26,700 -1,128 Descending Cleveland Center
Sat 11:51:21 PM 39.6053 -78.8397 108° East 438 504 25,900 -931 Descending Washington Center
Sat 11:52:20 PM 39.5739 -78.6931 105° East 433 498 24,900 -1,059 Descending Washington Center
Sat 11:53:20 PM 39.5419 -78.5517 106° East 422 486 23,800 -1,109 Descending Washington Center
Sat 11:54:19 PM 39.5119 -78.4133 106° East 416 479 22,700 -1,450 Descending Washington Center
Sat 11:55:20 PM 39.4817 -78.2778 106° East 401 461 20,900 -1,770 Descending Washington Center
Sat 11:56:21 PM 39.4511 -78.1447 107° East 386 444 19,100 -1,650 Descending Washington Center
Sat 11:57:20 PM 39.4206 -78.0175 107° East 381 438 17,600 -1,815 Descending Washington Center
Sat 11:58:20 PM 39.3919 -77.8850 106° East 381 438 15,500 -1,300 Descending Washington Center
Sat 11:59:20 PM 39.3942 -77.7589 89° East 360 414 15,000 -639 Descending Washington Center
Sun 12:00:22 AM 39.4069 -77.6275 83° East 360 414 14,200 -900 Descending Washington Center
Sun 12:01:20 AM 39.4153 -77.5014 85° East 360 414 13,200 -1,008 Descending Washington Center
Sun 12:02:21 AM 39.4131 -77.3725 91° East 355 409 12,200 -1,096 Descending Washington Center
Sun 12:03:04 AM 39.4000 -77.2667 99° East 344 396 11,300 -1,107 Descending Potomac TRACON
Sun 12:04:04 AM 39.4000 -77.1500 90° East 331 381 10,300 -1,000 Descending Potomac TRACON
Sun 12:05:04 AM 39.3833 -77.0333 100° East 318 366 9,300 -895 Descending Potomac TRACON
Sun 12:05:58 AM 39.3833 -76.9500 90° East 295 339 8,600 -737 Descending Potomac TRACON
Sun 12:06:58 AM 39.3667 -76.8500 102° East 259 298 7,900 -850 Descending Potomac TRACON
Sun 12:07:58 AM 39.3500 -76.7667 104° East 253 291 6,900 -947 Descending Potomac TRACON
Sun 12:08:52 AM 39.3500 -76.6833 90° East 245 282 6,100 -947 Descending Potomac TRACON
Sun 12:09:52 AM 39.3167 -76.6000 117° Southeast 212 244 5,100 -1,150 Descending Potomac TRACON
Sun 12:10:52 AM 39.2833 -76.5667 142° Southeast 182 209 3,800 -1,211 Descending Potomac TRACON
Sun 12:11:46 AM 39.2500 -76.5500 159° South 150 173 2,800 -900 Descending Potomac TRACON
Sun 12:12:52 AM 39.2000 -76.5500 180° South 135 155 2,000 -632 Descending Potomac TRACON
Sun 12:13:40 AM 39.1833 -76.5667 218° Southwest 109 125 1,600 -556 Descending Potomac TRACON
Sun 12:14:40 AM 39.1667 -76.6000 237° Southwest 114 131 1,000 -600 Descending Potomac TRACON
Sun 12:15:40 AM 39.1667 -76.6333 270° West 125 144 400 -600 Descending Potomac TRACON
Sun 12:17:00 AM 39.1667 -76.6667 237° Southwest  Level FlightAware Approximate
Sun 12:24:00 AM 39.1754 -76.6683 237° Southwest  Level Estimated
Sun 12:25:00 AM 39.1754 -76.6683 237° Southwest  Level Estimated

Login

Don't have an account? Register now (free) for customized features, flight alerts, and more!